Terminal Aerodrome Forecast
Issued by NWS

Home | Current Version | Previous Version | Text Only | Print | Product List | Glossary On
Versions: 1 2 3 4 5 6 7 8 9 10 11 12 13 14 15 16 17 18 19 20 21
000
FTUS43 KIND 051100
TAFHUF
TAF
KHUF 051125Z 0512/0612 35008KT P6SM OVC100
     FM051600 32010KT P6SM SCT030 SCT100 SCT250
     FM060000 32004KT P6SM SKC
     FM060900 00000KT P6SM SCT100 SCT250=

USA.gov is the U.S. government's official web portal to all federal, state and local government web resources and services.